Mineral Springs, Arkansas
Current Conditions -  °F | °C
As of 7:34 AM on Sunday 21 Dec 2014 (Local Time) from KTXK Reporting Station
Haze Haze  
Wind Chill: 31°   Ceiling: 4500
Heat Index: 36°   Visibility: 1.7mi
Dew Point: 36°   Wind: 6mph
Humidity: 100%   Direction: 70°ENE
Pressure: 30.16"   Gusts: NA
Location:  33.88°N, 93.91°W
Report Text: KTXK 211334Z 07005KT 1 3/4SM BR OVC045 02/02 A3016 RMK AO2 T00220022
Loading
Personal Weather Stations






























Interactive Weather Map New forecast layout! Learn more

10-Day Weather Forecast

Advertisements
Track Severe Weather on mobile